sensor_id;sensor_type;location;lat;lon;timestamp;temperature;humidity
75666;DHT22;64263;49.492;11.056;2023-06-26T00:00:59;17.90;70.50
75666;DHT22;64263;49.492;11.056;2023-06-26T00:03:24;17.90;70.20
75666;DHT22;64263;49.492;11.056;2023-06-26T00:05:50;17.90;69.90
75666;DHT22;64263;49.492;11.056;2023-06-26T00:08:15;17.90;69.80
75666;DHT22;64263;49.492;11.056;2023-06-26T00:10:41;17.90;69.80
75666;DHT22;64263;49.492;11.056;2023-06-26T00:13:06;17.80;70.10
75666;DHT22;64263;49.492;11.056;2023-06-26T00:15:31;17.80;70.30
75666;DHT22;64263;49.492;11.056;2023-06-26T00:17:58;17.80;70.70
75666;DHT22;64263;49.492;11.056;2023-06-26T00:20:24;17.60;71.30
75666;DHT22;64263;49.492;11.056;2023-06-26T00:22:49;17.60;71.60
75666;DHT22;64263;49.492;11.056;2023-06-26T00:25:15;17.50;71.80
75666;DHT22;64263;49.492;11.056;2023-06-26T00:27:40;17.50;72.10
75666;DHT22;64263;49.492;11.056;2023-06-26T00:30:06;17.40;72.30
75666;DHT22;64263;49.492;11.056;2023-06-26T00:32:32;17.40;72.20
75666;DHT22;64263;49.492;11.056;2023-06-26T00:34:57;17.40;72.50
75666;DHT22;64263;49.492;11.056;2023-06-26T00:37:22;17.30;72.90
75666;DHT22;64263;49.492;11.056;2023-06-26T00:39:48;17.20;73.30
75666;DHT22;64263;49.492;11.056;2023-06-26T00:42:13;17.10;73.70
75666;DHT22;64263;49.492;11.056;2023-06-26T00:44:39;17.00;73.80
75666;DHT22;64263;49.492;11.056;2023-06-26T00:47:04;17.00;74.10
75666;DHT22;64263;49.492;11.056;2023-06-26T00:49:30;16.90;74.30
75666;DHT22;64263;49.492;11.056;2023-06-26T00:51:56;16.90;74.50
75666;DHT22;64263;49.492;11.056;2023-06-26T00:54:22;16.90;74.70
75666;DHT22;64263;49.492;11.056;2023-06-26T00:56:48;16.90;74.30
75666;DHT22;64263;49.492;11.056;2023-06-26T00:59:14;16.90;73.70
75666;DHT22;64263;49.492;11.056;2023-06-26T01:01:39;16.90;73.40
75666;DHT22;64263;49.492;11.056;2023-06-26T01:04:05;16.90;73.40
75666;DHT22;64263;49.492;11.056;2023-06-26T01:06:31;16.90;73.70
75666;DHT22;64263;49.492;11.056;2023-06-26T01:08:58;16.80;74.00
75666;DHT22;64263;49.492;11.056;2023-06-26T01:11:24;16.80;73.80
75666;DHT22;64263;49.492;11.056;2023-06-26T01:13:51;16.80;73.90
75666;DHT22;64263;49.492;11.056;2023-06-26T01:16:17;16.70;74.00
75666;DHT22;64263;49.492;11.056;2023-06-26T01:18:43;16.70;73.80
75666;DHT22;64263;49.492;11.056;2023-06-26T01:21:10;16.70;74.10
75666;DHT22;64263;49.492;11.056;2023-06-26T01:23:48;16.70;74.30
75666;DHT22;64263;49.492;11.056;2023-06-26T01:26:23;16.60;74.30
75666;DHT22;64263;49.492;11.056;2023-06-26T01:28:53;16.60;74.30
75666;DHT22;64263;49.492;11.056;2023-06-26T01:31:19;16.50;74.60
75666;DHT22;64263;49.492;11.056;2023-06-26T01:33:45;16.50;74.60
75666;DHT22;64263;49.492;11.056;2023-06-26T01:36:11;16.50;74.60
75666;DHT22;64263;49.492;11.056;2023-06-26T01:38:37;16.50;74.70
75666;DHT22;64263;49.492;11.056;2023-06-26T01:41:04;16.50;74.60
75666;DHT22;64263;49.492;11.056;2023-06-26T01:44:02;16.50;74.50
75666;DHT22;64263;49.492;11.056;2023-06-26T01:49:50;16.40;74.50
75666;DHT22;64263;49.492;11.056;2023-06-26T01:52:29;16.40;74.80
75666;DHT22;64263;49.492;11.056;2023-06-26T01:57:30;16.00;75.90
75666;DHT22;64263;49.492;11.056;2023-06-26T01:59:56;16.00;76.20
75666;DHT22;64263;49.492;11.056;2023-06-26T02:02:24;15.80;76.30
75666;DHT22;64263;49.492;11.056;2023-06-26T02:04:49;15.60;76.30
75666;DHT22;64263;49.492;11.056;2023-06-26T02:07:15;15.60;76.70
75666;DHT22;64263;49.492;11.056;2023-06-26T02:09:41;15.60;77.10
75666;DHT22;64263;49.492;11.056;2023-06-26T02:12:07;15.60;78.00
75666;DHT22;64263;49.492;11.056;2023-06-26T02:14:32;15.50;77.70
75666;DHT22;64263;49.492;11.056;2023-06-26T02:16:58;15.60;77.70
75666;DHT22;64263;49.492;11.056;2023-06-26T02:19:24;15.60;77.50
75666;DHT22;64263;49.492;11.056;2023-06-26T02:21:49;15.50;77.10
75666;DHT22;64263;49.492;11.056;2023-06-26T02:24:15;15.40;77.60
75666;DHT22;64263;49.492;11.056;2023-06-26T02:26:40;15.30;78.30
75666;DHT22;64263;49.492;11.056;2023-06-26T02:29:06;15.40;78.70
75666;DHT22;64263;49.492;11.056;2023-06-26T02:31:31;15.30;77.90
75666;DHT22;64263;49.492;11.056;2023-06-26T02:33:57;15.30;78.40
75666;DHT22;64263;49.492;11.056;2023-06-26T02:36:22;15.40;78.50
75666;DHT22;64263;49.492;11.056;2023-06-26T02:38:48;15.50;77.90
75666;DHT22;64263;49.492;11.056;2023-06-26T02:41:13;15.50;77.60
75666;DHT22;64263;49.492;11.056;2023-06-26T02:43:39;15.50;78.00
75666;DHT22;64263;49.492;11.056;2023-06-26T02:46:04;15.50;77.70
75666;DHT22;64263;49.492;11.056;2023-06-26T02:48:30;15.40;77.60
75666;DHT22;64263;49.492;11.056;2023-06-26T02:50:55;15.20;77.80
75666;DHT22;64263;49.492;11.056;2023-06-26T02:53:21;15.00;78.10
75666;DHT22;64263;49.492;11.056;2023-06-26T02:55:46;15.00;79.00
75666;DHT22;64263;49.492;11.056;2023-06-26T02:58:11;15.00;79.20
75666;DHT22;64263;49.492;11.056;2023-06-26T03:00:37;14.90;79.20
75666;DHT22;64263;49.492;11.056;2023-06-26T03:03:02;15.00;79.30
75666;DHT22;64263;49.492;11.056;2023-06-26T03:05:28;15.00;79.20
75666;DHT22;64263;49.492;11.056;2023-06-26T03:07:53;15.00;79.20
75666;DHT22;64263;49.492;11.056;2023-06-26T03:10:19;15.10;79.00
75666;DHT22;64263;49.492;11.056;2023-06-26T03:12:44;15.10;78.90
75666;DHT22;64263;49.492;11.056;2023-06-26T03:15:10;15.20;78.70
75666;DHT22;64263;49.492;11.056;2023-06-26T03:17:35;15.20;78.60
75666;DHT22;64263;49.492;11.056;2023-06-26T03:20:00;15.20;78.50
75666;DHT22;64263;49.492;11.056;2023-06-26T03:22:26;15.20;78.20
75666;DHT22;64263;49.492;11.056;2023-06-26T03:24:51;15.30;77.90
75666;DHT22;64263;49.492;11.056;2023-06-26T03:27:17;15.30;77.90
75666;DHT22;64263;49.492;11.056;2023-06-26T03:29:42;15.40;77.50
75666;DHT22;64263;49.492;11.056;2023-06-26T03:32:08;15.40;77.60
75666;DHT22;64263;49.492;11.056;2023-06-26T03:34:33;15.40;77.70
75666;DHT22;64263;49.492;11.056;2023-06-26T03:36:59;15.40;77.60
75666;DHT22;64263;49.492;11.056;2023-06-26T03:39:24;15.40;77.90
75666;DHT22;64263;49.492;11.056;2023-06-26T03:41:50;15.40;77.90
75666;DHT22;64263;49.492;11.056;2023-06-26T03:44:15;15.40;77.50
75666;DHT22;64263;49.492;11.056;2023-06-26T03:46:41;15.40;77.40
75666;DHT22;64263;49.492;11.056;2023-06-26T03:49:06;15.50;77.40
75666;DHT22;64263;49.492;11.056;2023-06-26T03:51:31;15.50;77.30
75666;DHT22;64263;49.492;11.056;2023-06-26T03:53:57;15.50;77.30
75666;DHT22;64263;49.492;11.056;2023-06-26T03:56:22;15.50;77.50
75666;DHT22;64263;49.492;11.056;2023-06-26T03:58:48;15.50;78.70
75666;DHT22;64263;49.492;11.056;2023-06-26T04:01:13;15.40;78.90
75666;DHT22;64263;49.492;11.056;2023-06-26T04:03:39;15.40;79.10
75666;DHT22;64263;49.492;11.056;2023-06-26T04:06:04;15.40;79.00
75666;DHT22;64263;49.492;11.056;2023-06-26T04:08:30;15.40;78.90
75666;DHT22;64263;49.492;11.056;2023-06-26T04:10:55;15.50;78.60
75666;DHT22;64263;49.492;11.056;2023-06-26T04:13:20;15.60;78.10
75666;DHT22;64263;49.492;11.056;2023-06-26T04:15:46;15.60;77.50
75666;DHT22;64263;49.492;11.056;2023-06-26T04:18:11;15.70;77.00
75666;DHT22;64263;49.492;11.056;2023-06-26T04:20:39;15.80;76.40
75666;DHT22;64263;49.492;11.056;2023-06-26T04:23:06;15.90;75.80
75666;DHT22;64263;49.492;11.056;2023-06-26T04:25:31;16.00;75.30
75666;DHT22;64263;49.492;11.056;2023-06-26T04:27:57;16.00;74.60
75666;DHT22;64263;49.492;11.056;2023-06-26T04:30:22;16.10;74.20
75666;DHT22;64263;49.492;11.056;2023-06-26T04:32:48;16.30;73.70
75666;DHT22;64263;49.492;11.056;2023-06-26T04:35:13;16.40;73.70
75666;DHT22;64263;49.492;11.056;2023-06-26T04:37:39;16.60;72.90
75666;DHT22;64263;49.492;11.056;2023-06-26T04:40:05;16.80;72.70
75666;DHT22;64263;49.492;11.056;2023-06-26T04:42:31;16.90;70.90
75666;DHT22;64263;49.492;11.056;2023-06-26T04:44:56;17.00;69.90
75666;DHT22;64263;49.492;11.056;2023-06-26T04:47:21;17.20;69.50
75666;DHT22;64263;49.492;11.056;2023-06-26T04:49:47;17.30;68.60
75666;DHT22;64263;49.492;11.056;2023-06-26T04:52:13;17.50;69.00
75666;DHT22;64263;49.492;11.056;2023-06-26T04:54:39;17.60;67.70
75666;DHT22;64263;49.492;11.056;2023-06-26T04:57:05;17.80;67.30
75666;DHT22;64263;49.492;11.056;2023-06-26T04:59:30;17.90;66.80
75666;DHT22;64263;49.492;11.056;2023-06-26T05:01:56;18.10;66.20
75666;DHT22;64263;49.492;11.056;2023-06-26T05:04:21;18.30;65.10
75666;DHT22;64263;49.492;11.056;2023-06-26T05:06:47;18.40;64.70
75666;DHT22;64263;49.492;11.056;2023-06-26T05:09:12;18.50;64.30
75666;DHT22;64263;49.492;11.056;2023-06-26T05:11:38;18.60;63.60
75666;DHT22;64263;49.492;11.056;2023-06-26T05:14:03;18.80;62.90
75666;DHT22;64263;49.492;11.056;2023-06-26T05:16:29;18.90;62.30
75666;DHT22;64263;49.492;11.056;2023-06-26T05:18:54;19.10;61.60
75666;DHT22;64263;49.492;11.056;2023-06-26T05:21:20;19.20;61.20
75666;DHT22;64263;49.492;11.056;2023-06-26T05:23:46;19.40;60.60
75666;DHT22;64263;49.492;11.056;2023-06-26T05:26:12;19.50;60.20
75666;DHT22;64263;49.492;11.056;2023-06-26T05:28:38;19.70;59.60
75666;DHT22;64263;49.492;11.056;2023-06-26T05:31:04;19.90;59.50
75666;DHT22;64263;49.492;11.056;2023-06-26T05:33:29;20.20;59.30
75666;DHT22;64263;49.492;11.056;2023-06-26T05:35:55;20.30;58.00
75666;DHT22;64263;49.492;11.056;2023-06-26T05:38:21;20.30;56.90
75666;DHT22;64263;49.492;11.056;2023-06-26T05:40:47;20.50;56.80
75666;DHT22;64263;49.492;11.056;2023-06-26T05:43:12;20.70;55.90
75666;DHT22;64263;49.492;11.056;2023-06-26T05:45:38;20.70;55.50
75666;DHT22;64263;49.492;11.056;2023-06-26T05:48:04;20.90;55.10
75666;DHT22;64263;49.492;11.056;2023-06-26T05:50:29;20.90;55.70
75666;DHT22;64263;49.492;11.056;2023-06-26T05:52:55;21.00;54.60
75666;DHT22;64263;49.492;11.056;2023-06-26T05:55:21;21.10;55.00
75666;DHT22;64263;49.492;11.056;2023-06-26T05:57:47;21.40;55.10
75666;DHT22;64263;49.492;11.056;2023-06-26T06:00:13;21.50;53.60
75666;DHT22;64263;49.492;11.056;2023-06-26T06:02:39;21.70;53.50
75666;DHT22;64263;49.492;11.056;2023-06-26T06:05:05;21.90;52.40
75666;DHT22;64263;49.492;11.056;2023-06-26T06:07:32;21.90;53.10
75666;DHT22;64263;49.492;11.056;2023-06-26T06:09:58;22.20;52.40
75666;DHT22;64263;49.492;11.056;2023-06-26T06:12:24;22.40;52.50
75666;DHT22;64263;49.492;11.056;2023-06-26T06:14:49;22.80;51.50
75666;DHT22;64263;49.492;11.056;2023-06-26T06:17:14;23.00;49.80
75666;DHT22;64263;49.492;11.056;2023-06-26T06:19:40;23.20;49.60
75666;DHT22;64263;49.492;11.056;2023-06-26T06:22:05;23.10;48.30
75666;DHT22;64263;49.492;11.056;2023-06-26T06:24:31;23.30;49.50
75666;DHT22;64263;49.492;11.056;2023-06-26T06:26:56;23.70;50.00
75666;DHT22;64263;49.492;11.056;2023-06-26T06:29:22;24.10;48.00
75666;DHT22;64263;49.492;11.056;2023-06-26T06:31:47;24.00;47.10
75666;DHT22;64263;49.492;11.056;2023-06-26T06:34:13;24.00;47.00
75666;DHT22;64263;49.492;11.056;2023-06-26T06:36:38;23.90;46.40
75666;DHT22;64263;49.492;11.056;2023-06-26T06:39:04;23.90;46.90
75666;DHT22;64263;49.492;11.056;2023-06-26T06:41:29;24.20;47.50
75666;DHT22;64263;49.492;11.056;2023-06-26T06:43:55;24.50;43.60
75666;DHT22;64263;49.492;11.056;2023-06-26T06:46:20;25.20;44.10
75666;DHT22;64263;49.492;11.056;2023-06-26T06:48:46;25.60;43.00
75666;DHT22;64263;49.492;11.056;2023-06-26T06:51:11;25.60;42.30
75666;DHT22;64263;49.492;11.056;2023-06-26T06:53:37;25.40;42.00
75666;DHT22;64263;49.492;11.056;2023-06-26T06:56:02;26.00;41.90
75666;DHT22;64263;49.492;11.056;2023-06-26T06:58:28;26.30;41.00
75666;DHT22;64263;49.492;11.056;2023-06-26T07:00:53;26.70;40.90
75666;DHT22;64263;49.492;11.056;2023-06-26T07:03:19;27.20;40.10
75666;DHT22;64263;49.492;11.056;2023-06-26T07:05:44;26.90;38.60
75666;DHT22;64263;49.492;11.056;2023-06-26T07:08:10;26.70;39.40
75666;DHT22;64263;49.492;11.056;2023-06-26T07:10:36;26.40;39.10
75666;DHT22;64263;49.492;11.056;2023-06-26T07:13:01;26.80;40.30
75666;DHT22;64263;49.492;11.056;2023-06-26T07:15:27;27.10;40.80
75666;DHT22;64263;49.492;11.056;2023-06-26T07:17:52;27.80;38.10
75666;DHT22;64263;49.492;11.056;2023-06-26T07:20:18;28.60;38.70
75666;DHT22;64263;49.492;11.056;2023-06-26T07:22:44;27.90;37.40
75666;DHT22;64263;49.492;11.056;2023-06-26T07:25:09;27.10;37.70
75666;DHT22;64263;49.492;11.056;2023-06-26T07:27:36;27.50;39.50
75666;DHT22;64263;49.492;11.056;2023-06-26T07:30:02;28.50;37.80
75666;DHT22;64263;49.492;11.056;2023-06-26T07:32:27;28.30;36.30
75666;DHT22;64263;49.492;11.056;2023-06-26T07:34:53;28.90;37.60
75666;DHT22;64263;49.492;11.056;2023-06-26T07:37:18;29.70;36.50
75666;DHT22;64263;49.492;11.056;2023-06-26T07:39:44;30.30;37.00
75666;DHT22;64263;49.492;11.056;2023-06-26T07:42:09;30.50;34.60
75666;DHT22;64263;49.492;11.056;2023-06-26T07:44:35;30.90;35.40
75666;DHT22;64263;49.492;11.056;2023-06-26T07:47:00;31.30;34.50
75666;DHT22;64263;49.492;11.056;2023-06-26T07:49:26;31.60;35.10
75666;DHT22;64263;49.492;11.056;2023-06-26T07:51:51;32.10;34.20
75666;DHT22;64263;49.492;11.056;2023-06-26T07:54:17;32.20;33.50
75666;DHT22;64263;49.492;11.056;2023-06-26T07:56:58;32.00;33.10
75666;DHT22;64263;49.492;11.056;2023-06-26T07:59:25;32.10;33.70
75666;DHT22;64263;49.492;11.056;2023-06-26T08:01:52;32.60;33.00
75666;DHT22;64263;49.492;11.056;2023-06-26T08:04:21;33.20;31.60
75666;DHT22;64263;49.492;11.056;2023-06-26T08:06:49;32.90;31.90
75666;DHT22;64263;49.492;11.056;2023-06-26T08:09:15;33.30;33.10
75666;DHT22;64263;49.492;11.056;2023-06-26T08:11:40;33.60;32.40
75666;DHT22;64263;49.492;11.056;2023-06-26T08:14:06;32.60;32.30
75666;DHT22;64263;49.492;11.056;2023-06-26T08:16:31;33.00;32.00
75666;DHT22;64263;49.492;11.056;2023-06-26T08:18:57;33.30;32.70
75666;DHT22;64263;49.492;11.056;2023-06-26T08:21:22;33.80;32.30
75666;DHT22;64263;49.492;11.056;2023-06-26T08:23:48;34.20;31.50
75666;DHT22;64263;49.492;11.056;2023-06-26T08:26:14;34.20;30.10
75666;DHT22;64263;49.492;11.056;2023-06-26T08:28:39;34.60;31.00
75666;DHT22;64263;49.492;11.056;2023-06-26T08:31:05;35.20;31.50
75666;DHT22;64263;49.492;11.056;2023-06-26T08:33:30;35.50;30.30
75666;DHT22;64263;49.492;11.056;2023-06-26T08:35:55;35.70;30.10
75666;DHT22;64263;49.492;11.056;2023-06-26T08:38:21;35.90;29.90
75666;DHT22;64263;49.492;11.056;2023-06-26T08:40:47;36.20;30.40
75666;DHT22;64263;49.492;11.056;2023-06-26T08:43:13;36.40;30.80
75666;DHT22;64263;49.492;11.056;2023-06-26T08:45:38;36.50;30.40
75666;DHT22;64263;49.492;11.056;2023-06-26T08:48:07;36.50;27.70
75666;DHT22;64263;49.492;11.056;2023-06-26T08:50:34;36.70;29.20
75666;DHT22;64263;49.492;11.056;2023-06-26T08:53:08;37.00;28.20
75666;DHT22;64263;49.492;11.056;2023-06-26T08:55:38;37.30;28.20
75666;DHT22;64263;49.492;11.056;2023-06-26T08:58:06;37.50;27.70
75666;DHT22;64263;49.492;11.056;2023-06-26T09:00:31;37.50;28.60
75666;DHT22;64263;49.492;11.056;2023-06-26T09:02:57;37.50;29.00
75666;DHT22;64263;49.492;11.056;2023-06-26T09:05:23;37.50;28.10
75666;DHT22;64263;49.492;11.056;2023-06-26T09:07:48;37.30;28.60
75666;DHT22;64263;49.492;11.056;2023-06-26T09:10:14;37.20;27.70
75666;DHT22;64263;49.492;11.056;2023-06-26T09:12:39;36.60;27.80
75666;DHT22;64263;49.492;11.056;2023-06-26T09:15:06;36.50;29.50
75666;DHT22;64263;49.492;11.056;2023-06-26T09:17:38;36.90;27.90
75666;DHT22;64263;49.492;11.056;2023-06-26T09:20:04;37.50;27.20
75666;DHT22;64263;49.492;11.056;2023-06-26T09:22:35;38.10;27.10
75666;DHT22;64263;49.492;11.056;2023-06-26T09:25:01;38.50;27.20
75666;DHT22;64263;49.492;11.056;2023-06-26T09:27:26;38.70;28.20
75666;DHT22;64263;49.492;11.056;2023-06-26T09:29:52;38.80;26.50
75666;DHT22;64263;49.492;11.056;2023-06-26T09:32:19;38.60;27.30
75666;DHT22;64263;49.492;11.056;2023-06-26T09:34:44;38.50;27.90
75666;DHT22;64263;49.492;11.056;2023-06-26T09:37:12;38.10;27.80
75666;DHT22;64263;49.492;11.056;2023-06-26T09:39:37;37.70;28.40
75666;DHT22;64263;49.492;11.056;2023-06-26T09:42:04;37.50;27.00
75666;DHT22;64263;49.492;11.056;2023-06-26T09:44:31;37.40;27.20
75666;DHT22;64263;49.492;11.056;2023-06-26T09:46:57;37.70;27.00
75666;DHT22;64263;49.492;11.056;2023-06-26T09:49:23;37.70;27.20
75666;DHT22;64263;49.492;11.056;2023-06-26T09:51:50;38.10;27.50
75666;DHT22;64263;49.492;11.056;2023-06-26T09:54:16;38.30;27.20
75666;DHT22;64263;49.492;11.056;2023-06-26T09:56:42;38.20;25.40
75666;DHT22;64263;49.492;11.056;2023-06-26T09:59:07;38.50;26.00
75666;DHT22;64263;49.492;11.056;2023-06-26T10:01:33;38.50;26.40
75666;DHT22;64263;49.492;11.056;2023-06-26T10:04:00;38.70;25.80
75666;DHT22;64263;49.492;11.056;2023-06-26T10:06:34;38.70;27.20
75666;DHT22;64263;49.492;11.056;2023-06-26T10:09:01;38.90;25.50
75666;DHT22;64263;49.492;11.056;2023-06-26T10:11:35;39.60;24.60
75666;DHT22;64263;49.492;11.056;2023-06-26T10:14:03;40.40;24.00
75666;DHT22;64263;49.492;11.056;2023-06-26T10:16:31;40.70;24.70
75666;DHT22;64263;49.492;11.056;2023-06-26T10:19:02;41.10;23.20
75666;DHT22;64263;49.492;11.056;2023-06-26T10:21:29;41.50;23.70
75666;DHT22;64263;49.492;11.056;2023-06-26T10:23:56;42.20;23.00
75666;DHT22;64263;49.492;11.056;2023-06-26T10:26:24;42.40;22.10
75666;DHT22;64263;49.492;11.056;2023-06-26T10:28:50;42.50;21.80
75666;DHT22;64263;49.492;11.056;2023-06-26T10:31:22;42.90;21.70
75666;DHT22;64263;49.492;11.056;2023-06-26T10:33:49;43.20;22.20
75666;DHT22;64263;49.492;11.056;2023-06-26T10:36:20;43.60;21.10
75666;DHT22;64263;49.492;11.056;2023-06-26T10:39:03;43.70;20.60
75666;DHT22;64263;49.492;11.056;2023-06-26T10:41:39;44.60;21.00
75666;DHT22;64263;49.492;11.056;2023-06-26T10:44:15;44.60;20.50
75666;DHT22;64263;49.492;11.056;2023-06-26T10:46:54;45.00;21.20
75666;DHT22;64263;49.492;11.056;2023-06-26T10:49:20;45.00;20.90
75666;DHT22;64263;49.492;11.056;2023-06-26T10:51:50;45.30;19.30
75666;DHT22;64263;49.492;11.056;2023-06-26T10:54:17;45.10;19.60
75666;DHT22;64263;49.492;11.056;2023-06-26T10:56:50;45.30;19.60
75666;DHT22;64263;49.492;11.056;2023-06-26T10:59:16;46.20;19.10
75666;DHT22;64263;49.492;11.056;2023-06-26T11:01:42;46.40;18.80
75666;DHT22;64263;49.492;11.056;2023-06-26T11:04:08;45.70;19.40
75666;DHT22;64263;49.492;11.056;2023-06-26T11:06:35;46.00;19.30
75666;DHT22;64263;49.492;11.056;2023-06-26T11:14:19;46.40;18.30
75666;DHT22;64263;49.492;11.056;2023-06-26T11:16:45;46.50;18.70
75666;DHT22;64263;49.492;11.056;2023-06-26T11:19:13;46.90;18.30
75666;DHT22;64263;49.492;11.056;2023-06-26T11:21:39;46.90;17.90
75666;DHT22;64263;49.492;11.056;2023-06-26T11:24:09;46.30;18.90
75666;DHT22;64263;49.492;11.056;2023-06-26T11:26:42;46.90;18.40
75666;DHT22;64263;49.492;11.056;2023-06-26T11:29:09;47.10;18.10
75666;DHT22;64263;49.492;11.056;2023-06-26T11:31:36;47.60;18.10
75666;DHT22;64263;49.492;11.056;2023-06-26T11:34:04;47.70;17.90
75666;DHT22;64263;49.492;11.056;2023-06-26T11:36:31;47.60;17.40
75666;DHT22;64263;49.492;11.056;2023-06-26T11:38:59;47.30;17.30
75666;DHT22;64263;49.492;11.056;2023-06-26T11:41:26;47.10;17.30
75666;DHT22;64263;49.492;11.056;2023-06-26T11:43:52;47.30;17.60
75666;DHT22;64263;49.492;11.056;2023-06-26T11:46:18;47.50;18.40
75666;DHT22;64263;49.492;11.056;2023-06-26T11:48:44;47.10;17.30
75666;DHT22;64263;49.492;11.056;2023-06-26T11:51:11;47.10;17.20
75666;DHT22;64263;49.492;11.056;2023-06-26T11:53:45;47.20;17.30
75666;DHT22;64263;49.492;11.056;2023-06-26T11:56:15;47.80;17.10
75666;DHT22;64263;49.492;11.056;2023-06-26T11:59:06;47.60;16.90
75666;DHT22;64263;49.492;11.056;2023-06-26T12:01:38;47.60;17.00
75666;DHT22;64263;49.492;11.056;2023-06-26T12:04:06;47.50;17.20
75666;DHT22;64263;49.492;11.056;2023-06-26T12:06:34;47.70;17.00
75666;DHT22;64263;49.492;11.056;2023-06-26T12:09:01;47.70;17.20
75666;DHT22;64263;49.492;11.056;2023-06-26T12:11:28;47.80;18.40
75666;DHT22;64263;49.492;11.056;2023-06-26T12:13:54;48.20;17.60
75666;DHT22;64263;49.492;11.056;2023-06-26T12:16:20;48.10;17.20
75666;DHT22;64263;49.492;11.056;2023-06-26T12:18:45;48.30;17.80
75666;DHT22;64263;49.492;11.056;2023-06-26T12:21:44;47.90;17.30
75666;DHT22;64263;49.492;11.056;2023-06-26T12:24:14;47.50;18.30
75666;DHT22;64263;49.492;11.056;2023-06-26T12:26:44;47.90;16.90
75666;DHT22;64263;49.492;11.056;2023-06-26T12:29:12;47.80;18.40
75666;DHT22;64263;49.492;11.056;2023-06-26T12:31:42;47.70;18.70
75666;DHT22;64263;49.492;11.056;2023-06-26T12:34:13;46.60;19.10
75666;DHT22;64263;49.492;11.056;2023-06-26T12:36:49;43.20;20.70
75666;DHT22;64263;49.492;11.056;2023-06-26T12:39:17;44.20;19.30
75666;DHT22;64263;49.492;11.056;2023-06-26T12:44:25;45.00;18.70
75666;DHT22;64263;49.492;11.056;2023-06-26T12:46:54;45.60;18.30
75666;DHT22;64263;49.492;11.056;2023-06-26T12:49:20;45.50;18.90
75666;DHT22;64263;49.492;11.056;2023-06-26T12:51:46;45.60;18.80
75666;DHT22;64263;49.492;11.056;2023-06-26T12:54:11;44.50;19.90
75666;DHT22;64263;49.492;11.056;2023-06-26T12:56:37;42.90;20.80
75666;DHT22;64263;49.492;11.056;2023-06-26T12:59:02;40.60;22.10
75666;DHT22;64263;49.492;11.056;2023-06-26T13:01:28;39.30;23.60
75666;DHT22;64263;49.492;11.056;2023-06-26T13:03:54;38.30;24.60
75666;DHT22;64263;49.492;11.056;2023-06-26T13:06:20;37.20;27.10
75666;DHT22;64263;49.492;11.056;2023-06-26T13:08:45;35.80;27.40
75666;DHT22;64263;49.492;11.056;2023-06-26T13:11:11;35.00;28.30
75666;DHT22;64263;49.492;11.056;2023-06-26T13:13:36;34.30;28.50
75666;DHT22;64263;49.492;11.056;2023-06-26T13:16:02;33.90;30.00
75666;DHT22;64263;49.492;11.056;2023-06-26T13:18:27;33.50;31.10
75666;DHT22;64263;49.492;11.056;2023-06-26T13:20:53;33.10;30.30
75666;DHT22;64263;49.492;11.056;2023-06-26T13:23:18;33.00;31.30
75666;DHT22;64263;49.492;11.056;2023-06-26T13:25:44;33.10;31.00
75666;DHT22;64263;49.492;11.056;2023-06-26T13:28:10;33.40;31.30
75666;DHT22;64263;49.492;11.056;2023-06-26T13:30:35;33.30;31.90
75666;DHT22;64263;49.492;11.056;2023-06-26T13:33:01;33.40;31.70
75666;DHT22;64263;49.492;11.056;2023-06-26T13:35:26;33.40;31.90
75666;DHT22;64263;49.492;11.056;2023-06-26T13:37:52;33.40;31.70
75666;DHT22;64263;49.492;11.056;2023-06-26T13:40:17;33.40;31.20
75666;DHT22;64263;49.492;11.056;2023-06-26T13:42:43;33.20;32.10
75666;DHT22;64263;49.492;11.056;2023-06-26T13:45:09;33.00;31.70
75666;DHT22;64263;49.492;11.056;2023-06-26T13:47:34;33.10;31.90
75666;DHT22;64263;49.492;11.056;2023-06-26T13:50:00;33.20;31.10
75666;DHT22;64263;49.492;11.056;2023-06-26T13:52:25;33.00;31.10
75666;DHT22;64263;49.492;11.056;2023-06-26T13:54:51;32.80;32.30
75666;DHT22;64263;49.492;11.056;2023-06-26T13:57:16;32.80;33.00
75666;DHT22;64263;49.492;11.056;2023-06-26T13:59:42;32.80;33.40
75666;DHT22;64263;49.492;11.056;2023-06-26T14:02:08;32.80;33.20
75666;DHT22;64263;49.492;11.056;2023-06-26T14:04:33;32.80;33.60
75666;DHT22;64263;49.492;11.056;2023-06-26T14:06:59;32.90;33.40
75666;DHT22;64263;49.492;11.056;2023-06-26T14:09:24;32.80;33.80
75666;DHT22;64263;49.492;11.056;2023-06-26T14:11:50;32.80;33.20
75666;DHT22;64263;49.492;11.056;2023-06-26T14:14:15;32.50;34.40
75666;DHT22;64263;49.492;11.056;2023-06-26T14:16:41;32.20;34.60
75666;DHT22;64263;49.492;11.056;2023-06-26T14:19:07;32.20;35.50
75666;DHT22;64263;49.492;11.056;2023-06-26T14:21:32;32.20;34.80
75666;DHT22;64263;49.492;11.056;2023-06-26T14:23:57;32.20;34.70
75666;DHT22;64263;49.492;11.056;2023-06-26T14:26:23;32.00;35.50
75666;DHT22;64263;49.492;11.056;2023-06-26T14:28:48;31.80;35.80
75666;DHT22;64263;49.492;11.056;2023-06-26T14:31:14;31.80;34.90
75666;DHT22;64263;49.492;11.056;2023-06-26T14:33:39;32.00;34.20
75666;DHT22;64263;49.492;11.056;2023-06-26T14:36:05;32.20;34.00
75666;DHT22;64263;49.492;11.056;2023-06-26T14:38:30;32.10;35.60
75666;DHT22;64263;49.492;11.056;2023-06-26T14:40:56;32.10;33.70
75666;DHT22;64263;49.492;11.056;2023-06-26T14:43:21;32.20;34.00
75666;DHT22;64263;49.492;11.056;2023-06-26T14:45:47;32.00;34.70
75666;DHT22;64263;49.492;11.056;2023-06-26T14:48:13;32.00;35.50
75666;DHT22;64263;49.492;11.056;2023-06-26T14:50:38;31.90;35.50
75666;DHT22;64263;49.492;11.056;2023-06-26T14:53:04;31.90;34.50
75666;DHT22;64263;49.492;11.056;2023-06-26T14:55:29;32.00;34.70
75666;DHT22;64263;49.492;11.056;2023-06-26T14:57:55;31.80;34.00
75666;DHT22;64263;49.492;11.056;2023-06-26T15:00:20;31.80;34.80
75666;DHT22;64263;49.492;11.056;2023-06-26T15:02:46;32.00;34.60
75666;DHT22;64263;49.492;11.056;2023-06-26T15:05:11;32.20;34.70
75666;DHT22;64263;49.492;11.056;2023-06-26T15:07:37;32.00;34.20
75666;DHT22;64263;49.492;11.056;2023-06-26T15:10:02;31.80;35.30
75666;DHT22;64263;49.492;11.056;2023-06-26T15:12:28;31.60;35.10
75666;DHT22;64263;49.492;11.056;2023-06-26T15:14:53;31.30;35.40
75666;DHT22;64263;49.492;11.056;2023-06-26T15:17:19;31.20;36.30
75666;DHT22;64263;49.492;11.056;2023-06-26T15:19:44;31.50;36.80
75666;DHT22;64263;49.492;11.056;2023-06-26T15:22:10;31.40;36.70
75666;DHT22;64263;49.492;11.056;2023-06-26T15:24:35;31.10;37.60